sensor_id;sensor_type;location;lat;lon;timestamp;P1;durP1;ratioP1;P2;durP2;ratioP2
47287;SDS011;33020;53.008;13.558;2022-11-20T00:00:18;9.97;;;5.73;;
47287;SDS011;33020;53.008;13.558;2022-11-20T00:02:45;10.80;;;5.93;;
47287;SDS011;33020;53.008;13.558;2022-11-20T00:05:11;11.43;;;6.57;;
47287;SDS011;33020;53.008;13.558;2022-11-20T00:07:38;10.50;;;6.20;;
47287;SDS011;33020;53.008;13.558;2022-11-20T00:10:05;12.00;;;7.07;;
47287;SDS011;33020;53.008;13.558;2022-11-20T00:12:32;11.43;;;6.37;;
47287;SDS011;33020;53.008;13.558;2022-11-20T00:14:58;11.57;;;6.57;;
47287;SDS011;33020;53.008;13.558;2022-11-20T00:17:25;12.37;;;6.93;;
47287;SDS011;33020;53.008;13.558;2022-11-20T00:19:52;12.30;;;7.40;;
47287;SDS011;33020;53.008;13.558;2022-11-20T00:22:19;12.23;;;7.00;;
47287;SDS011;33020;53.008;13.558;2022-11-20T00:24:45;12.77;;;7.40;;
47287;SDS011;33020;53.008;13.558;2022-11-20T00:27:12;13.60;;;7.73;;
47287;SDS011;33020;53.008;13.558;2022-11-20T00:29:39;14.83;;;8.20;;
47287;SDS011;33020;53.008;13.558;2022-11-20T00:32:06;14.30;;;7.40;;
47287;SDS011;33020;53.008;13.558;2022-11-20T00:34:32;17.33;;;9.27;;
47287;SDS011;33020;53.008;13.558;2022-11-20T00:36:59;15.17;;;8.17;;
47287;SDS011;33020;53.008;13.558;2022-11-20T00:39:26;15.63;;;8.93;;
47287;SDS011;33020;53.008;13.558;2022-11-20T00:41:53;15.07;;;8.47;;
47287;SDS011;33020;53.008;13.558;2022-11-20T00:44:20;15.10;;;8.40;;
47287;SDS011;33020;53.008;13.558;2022-11-20T00:46:46;21.77;;;9.93;;
47287;SDS011;33020;53.008;13.558;2022-11-20T00:49:13;17.30;;;10.30;;
47287;SDS011;33020;53.008;13.558;2022-11-20T00:51:40;17.87;;;9.60;;
47287;SDS011;33020;53.008;13.558;2022-11-20T00:54:06;18.23;;;10.17;;
47287;SDS011;33020;53.008;13.558;2022-11-20T00:56:33;17.30;;;8.87;;
47287;SDS011;33020;53.008;13.558;2022-11-20T00:59:00;17.93;;;10.20;;
47287;SDS011;33020;53.008;13.558;2022-11-20T01:01:29;20.80;;;11.03;;
47287;SDS011;33020;53.008;13.558;2022-11-20T01:03:57;20.93;;;10.63;;
47287;SDS011;33020;53.008;13.558;2022-11-20T01:06:29;20.57;;;10.97;;
47287;SDS011;33020;53.008;13.558;2022-11-20T01:08:58;20.23;;;10.43;;
47287;SDS011;33020;53.008;13.558;2022-11-20T01:11:26;17.53;;;9.70;;
47287;SDS011;33020;53.008;13.558;2022-11-20T01:13:54;21.07;;;10.00;;
47287;SDS011;33020;53.008;13.558;2022-11-20T01:16:26;20.97;;;10.80;;
47287;SDS011;33020;53.008;13.558;2022-11-20T01:18:56;22.40;;;11.00;;
47287;SDS011;33020;53.008;13.558;2022-11-20T01:21:25;19.70;;;10.40;;
47287;SDS011;33020;53.008;13.558;2022-11-20T01:23:53;19.33;;;10.07;;
47287;SDS011;33020;53.008;13.558;2022-11-20T01:26:21;21.47;;;11.47;;
47287;SDS011;33020;53.008;13.558;2022-11-20T01:28:50;21.17;;;11.57;;
47287;SDS011;33020;53.008;13.558;2022-11-20T01:31:35;22.73;;;11.47;;
47287;SDS011;33020;53.008;13.558;2022-11-20T01:34:07;17.97;;;11.03;;
47287;SDS011;33020;53.008;13.558;2022-11-20T01:36:40;23.97;;;10.90;;
47287;SDS011;33020;53.008;13.558;2022-11-20T01:39:09;20.57;;;10.73;;
47287;SDS011;33020;53.008;13.558;2022-11-20T01:41:38;19.87;;;10.83;;
47287;SDS011;33020;53.008;13.558;2022-11-20T01:44:42;21.30;;;10.90;;
47287;SDS011;33020;53.008;13.558;2022-11-20T01:47:16;25.93;;;11.77;;
47287;SDS011;33020;53.008;13.558;2022-11-20T01:49:48;20.63;;;11.27;;
47287;SDS011;33020;53.008;13.558;2022-11-20T01:52:19;22.30;;;11.23;;
47287;SDS011;33020;53.008;13.558;2022-11-20T01:54:56;22.57;;;11.00;;
47287;SDS011;33020;53.008;13.558;2022-11-20T01:57:26;22.70;;;11.77;;
47287;SDS011;33020;53.008;13.558;2022-11-20T01:59:57;18.40;;;9.73;;
47287;SDS011;33020;53.008;13.558;2022-11-20T02:02:26;22.00;;;10.77;;
47287;SDS011;33020;53.008;13.558;2022-11-20T02:04:54;23.27;;;12.37;;
47287;SDS011;33020;53.008;13.558;2022-11-20T02:07:23;21.27;;;11.17;;
47287;SDS011;33020;53.008;13.558;2022-11-20T02:09:50;21.73;;;11.17;;
47287;SDS011;33020;53.008;13.558;2022-11-20T02:12:23;19.98;;;9.77;;
47287;SDS011;33020;53.008;13.558;2022-11-20T02:15:09;19.07;;;11.00;;
47287;SDS011;33020;53.008;13.558;2022-11-20T02:17:36;20.97;;;11.00;;
47287;SDS011;33020;53.008;13.558;2022-11-20T02:20:02;22.17;;;11.70;;
47287;SDS011;33020;53.008;13.558;2022-11-20T02:22:35;22.37;;;10.97;;
47287;SDS011;33020;53.008;13.558;2022-11-20T02:25:05;22.43;;;11.37;;
47287;SDS011;33020;53.008;13.558;2022-11-20T02:27:33;22.80;;;10.40;;
47287;SDS011;33020;53.008;13.558;2022-11-20T02:30:01;21.67;;;10.97;;
47287;SDS011;33020;53.008;13.558;2022-11-20T02:32:34;23.63;;;12.63;;
47287;SDS011;33020;53.008;13.558;2022-11-20T02:37:44;18.27;;;9.90;;
47287;SDS011;33020;53.008;13.558;2022-11-20T02:40:11;18.87;;;10.83;;
47287;SDS011;33020;53.008;13.558;2022-11-20T02:42:38;16.17;;;9.40;;
47287;SDS011;33020;53.008;13.558;2022-11-20T02:45:04;15.90;;;9.27;;
47287;SDS011;33020;53.008;13.558;2022-11-20T02:47:32;18.37;;;9.37;;
47287;SDS011;33020;53.008;13.558;2022-11-20T02:49:58;16.60;;;9.57;;
47287;SDS011;33020;53.008;13.558;2022-11-20T02:52:25;17.60;;;9.80;;
47287;SDS011;33020;53.008;13.558;2022-11-20T02:54:52;18.23;;;10.37;;
47287;SDS011;33020;53.008;13.558;2022-11-20T02:57:19;17.67;;;9.70;;
47287;SDS011;33020;53.008;13.558;2022-11-20T02:59:45;16.70;;;9.17;;
47287;SDS011;33020;53.008;13.558;2022-11-20T03:02:12;17.47;;;9.17;;
47287;SDS011;33020;53.008;13.558;2022-11-20T03:04:39;16.10;;;8.90;;
47287;SDS011;33020;53.008;13.558;2022-11-20T03:07:05;16.70;;;8.97;;
47287;SDS011;33020;53.008;13.558;2022-11-20T03:09:32;17.67;;;9.40;;
47287;SDS011;33020;53.008;13.558;2022-11-20T03:11:59;19.83;;;10.33;;
47287;SDS011;33020;53.008;13.558;2022-11-20T03:14:25;17.97;;;10.37;;
47287;SDS011;33020;53.008;13.558;2022-11-20T03:16:52;19.37;;;11.33;;
47287;SDS011;33020;53.008;13.558;2022-11-20T03:19:18;20.40;;;11.00;;
47287;SDS011;33020;53.008;13.558;2022-11-20T03:21:46;20.17;;;10.93;;
47287;SDS011;33020;53.008;13.558;2022-11-20T03:24:12;18.57;;;10.90;;
47287;SDS011;33020;53.008;13.558;2022-11-20T03:26:39;19.27;;;11.37;;
47287;SDS011;33020;53.008;13.558;2022-11-20T03:29:06;20.17;;;10.93;;
47287;SDS011;33020;53.008;13.558;2022-11-20T03:31:34;20.97;;;11.20;;
47287;SDS011;33020;53.008;13.558;2022-11-20T03:34:02;21.23;;;11.93;;
47287;SDS011;33020;53.008;13.558;2022-11-20T03:36:29;20.47;;;11.80;;
47287;SDS011;33020;53.008;13.558;2022-11-20T03:38:56;23.50;;;12.03;;
47287;SDS011;33020;53.008;13.558;2022-11-20T03:41:24;22.13;;;11.80;;
47287;SDS011;33020;53.008;13.558;2022-11-20T03:43:55;22.30;;;11.80;;
47287;SDS011;33020;53.008;13.558;2022-11-20T03:46:26;22.70;;;12.90;;
47287;SDS011;33020;53.008;13.558;2022-11-20T03:48:54;22.13;;;10.70;;
47287;SDS011;33020;53.008;13.558;2022-11-20T03:53:49;20.43;;;11.47;;
47287;SDS011;33020;53.008;13.558;2022-11-20T03:56:17;25.67;;;12.00;;
47287;SDS011;33020;53.008;13.558;2022-11-20T03:58:45;22.40;;;10.97;;
47287;SDS011;33020;53.008;13.558;2022-11-20T04:01:16;20.77;;;11.07;;
47287;SDS011;33020;53.008;13.558;2022-11-20T04:03:44;22.00;;;10.93;;
47287;SDS011;33020;53.008;13.558;2022-11-20T04:06:12;24.40;;;11.67;;
47287;SDS011;33020;53.008;13.558;2022-11-20T04:08:41;21.67;;;10.80;;
47287;SDS011;33020;53.008;13.558;2022-11-20T04:11:09;22.03;;;11.70;;
47287;SDS011;33020;53.008;13.558;2022-11-20T04:13:39;20.40;;;10.80;;
47287;SDS011;33020;53.008;13.558;2022-11-20T04:16:07;20.77;;;11.27;;
47287;SDS011;33020;53.008;13.558;2022-11-20T04:18:35;24.43;;;12.07;;
47287;SDS011;33020;53.008;13.558;2022-11-20T04:21:02;20.67;;;10.80;;
47287;SDS011;33020;53.008;13.558;2022-11-20T04:23:30;21.53;;;11.37;;
47287;SDS011;33020;53.008;13.558;2022-11-20T04:28:37;21.77;;;11.50;;
47287;SDS011;33020;53.008;13.558;2022-11-20T04:31:08;22.77;;;10.90;;
47287;SDS011;33020;53.008;13.558;2022-11-20T04:33:36;25.33;;;12.17;;
47287;SDS011;33020;53.008;13.558;2022-11-20T04:36:04;25.10;;;12.03;;
47287;SDS011;33020;53.008;13.558;2022-11-20T04:38:39;22.30;;;12.20;;
47287;SDS011;33020;53.008;13.558;2022-11-20T04:41:07;22.40;;;12.33;;
47287;SDS011;33020;53.008;13.558;2022-11-20T04:43:35;22.57;;;12.67;;
47287;SDS011;33020;53.008;13.558;2022-11-20T04:46:01;22.63;;;12.67;;
47287;SDS011;33020;53.008;13.558;2022-11-20T04:48:29;23.23;;;12.83;;
47287;SDS011;33020;53.008;13.558;2022-11-20T04:50:56;21.90;;;11.87;;
47287;SDS011;33020;53.008;13.558;2022-11-20T04:53:23;23.63;;;11.90;;
47287;SDS011;33020;53.008;13.558;2022-11-20T04:55:49;23.23;;;11.87;;
47287;SDS011;33020;53.008;13.558;2022-11-20T04:58:16;24.30;;;12.53;;
47287;SDS011;33020;53.008;13.558;2022-11-20T05:00:43;26.63;;;13.23;;
47287;SDS011;33020;53.008;13.558;2022-11-20T05:03:09;25.53;;;12.83;;
47287;SDS011;33020;53.008;13.558;2022-11-20T05:05:36;20.97;;;11.93;;
47287;SDS011;33020;53.008;13.558;2022-11-20T05:08:03;20.20;;;11.77;;
47287;SDS011;33020;53.008;13.558;2022-11-20T05:10:29;22.67;;;12.03;;
47287;SDS011;33020;53.008;13.558;2022-11-20T05:12:56;24.33;;;12.80;;
47287;SDS011;33020;53.008;13.558;2022-11-20T05:15:23;21.20;;;11.47;;
47287;SDS011;33020;53.008;13.558;2022-11-20T05:17:52;21.67;;;12.37;;
47287;SDS011;33020;53.008;13.558;2022-11-20T05:20:19;21.33;;;12.10;;
47287;SDS011;33020;53.008;13.558;2022-11-20T05:22:46;22.77;;;12.47;;
47287;SDS011;33020;53.008;13.558;2022-11-20T05:25:12;24.10;;;12.43;;
47287;SDS011;33020;53.008;13.558;2022-11-20T05:27:39;23.57;;;13.03;;
47287;SDS011;33020;53.008;13.558;2022-11-20T05:30:06;26.30;;;13.77;;
47287;SDS011;33020;53.008;13.558;2022-11-20T05:32:33;25.03;;;13.23;;
47287;SDS011;33020;53.008;13.558;2022-11-20T05:34:59;21.60;;;13.40;;
47287;SDS011;33020;53.008;13.558;2022-11-20T05:37:26;22.07;;;12.70;;
47287;SDS011;33020;53.008;13.558;2022-11-20T05:39:52;25.07;;;13.33;;
47287;SDS011;33020;53.008;13.558;2022-11-20T05:42:19;21.63;;;12.87;;
47287;SDS011;33020;53.008;13.558;2022-11-20T05:44:58;26.90;;;13.87;;
47287;SDS011;33020;53.008;13.558;2022-11-20T05:47:26;24.47;;;13.07;;
47287;SDS011;33020;53.008;13.558;2022-11-20T05:49:58;26.83;;;13.43;;
47287;SDS011;33020;53.008;13.558;2022-11-20T05:52:24;22.07;;;12.70;;
47287;SDS011;33020;53.008;13.558;2022-11-20T05:54:51;24.83;;;12.50;;
47287;SDS011;33020;53.008;13.558;2022-11-20T05:57:17;22.73;;;12.13;;
47287;SDS011;33020;53.008;13.558;2022-11-20T05:59:44;22.97;;;12.50;;
47287;SDS011;33020;53.008;13.558;2022-11-20T06:02:11;21.00;;;12.43;;
47287;SDS011;33020;53.008;13.558;2022-11-20T06:04:38;20.47;;;12.23;;
47287;SDS011;33020;53.008;13.558;2022-11-20T06:07:05;25.27;;;13.23;;
47287;SDS011;33020;53.008;13.558;2022-11-20T06:09:32;22.73;;;13.00;;
47287;SDS011;33020;53.008;13.558;2022-11-20T06:11:59;23.33;;;13.03;;
47287;SDS011;33020;53.008;13.558;2022-11-20T06:14:26;24.60;;;13.27;;
47287;SDS011;33020;53.008;13.558;2022-11-20T06:16:52;22.23;;;11.30;;
47287;SDS011;33020;53.008;13.558;2022-11-20T06:19:19;24.07;;;13.83;;
47287;SDS011;33020;53.008;13.558;2022-11-20T06:21:47;24.23;;;12.67;;
47287;SDS011;33020;53.008;13.558;2022-11-20T06:24:15;24.83;;;12.90;;
47287;SDS011;33020;53.008;13.558;2022-11-20T06:26:42;25.13;;;13.73;;
47287;SDS011;33020;53.008;13.558;2022-11-20T06:29:09;23.70;;;12.67;;
47287;SDS011;33020;53.008;13.558;2022-11-20T06:31:36;26.23;;;14.87;;
47287;SDS011;33020;53.008;13.558;2022-11-20T06:34:04;21.03;;;13.53;;
47287;SDS011;33020;53.008;13.558;2022-11-20T06:36:32;26.97;;;14.77;;
47287;SDS011;33020;53.008;13.558;2022-11-20T06:38:59;26.20;;;14.93;;
47287;SDS011;33020;53.008;13.558;2022-11-20T06:41:26;21.23;;;13.30;;
47287;SDS011;33020;53.008;13.558;2022-11-20T06:43:54;25.43;;;14.03;;
47287;SDS011;33020;53.008;13.558;2022-11-20T06:46:21;23.03;;;12.93;;
47287;SDS011;33020;53.008;13.558;2022-11-20T06:48:48;30.47;;;16.80;;
47287;SDS011;33020;53.008;13.558;2022-11-20T06:51:15;66.13;;;45.20;;
47287;SDS011;33020;53.008;13.558;2022-11-20T06:53:42;32.60;;;17.83;;
47287;SDS011;33020;53.008;13.558;2022-11-20T06:56:12;33.20;;;23.43;;
47287;SDS011;33020;53.008;13.558;2022-11-20T06:58:39;34.17;;;25.53;;
47287;SDS011;33020;53.008;13.558;2022-11-20T07:01:07;23.47;;;14.30;;
47287;SDS011;33020;53.008;13.558;2022-11-20T07:03:36;23.60;;;14.80;;
47287;SDS011;33020;53.008;13.558;2022-11-20T07:06:03;27.40;;;17.60;;
47287;SDS011;33020;53.008;13.558;2022-11-20T07:08:30;25.23;;;14.97;;
47287;SDS011;33020;53.008;13.558;2022-11-20T07:11:01;23.23;;;12.53;;
47287;SDS011;33020;53.008;13.558;2022-11-20T07:13:29;25.67;;;13.10;;
47287;SDS011;33020;53.008;13.558;2022-11-20T07:16:00;26.77;;;14.77;;
47287;SDS011;33020;53.008;13.558;2022-11-20T07:18:27;24.57;;;13.10;;
47287;SDS011;33020;53.008;13.558;2022-11-20T07:20:54;26.93;;;14.03;;
47287;SDS011;33020;53.008;13.558;2022-11-20T07:23:21;25.23;;;14.10;;
47287;SDS011;33020;53.008;13.558;2022-11-20T07:25:48;27.67;;;14.20;;
47287;SDS011;33020;53.008;13.558;2022-11-20T07:28:14;25.80;;;13.20;;
47287;SDS011;33020;53.008;13.558;2022-11-20T07:30:41;25.07;;;13.73;;
47287;SDS011;33020;53.008;13.558;2022-11-20T07:33:08;25.63;;;14.47;;
47287;SDS011;33020;53.008;13.558;2022-11-20T07:35:35;35.80;;;24.70;;
47287;SDS011;33020;53.008;13.558;2022-11-20T07:38:02;27.30;;;18.50;;
47287;SDS011;33020;53.008;13.558;2022-11-20T07:40:28;31.30;;;18.87;;
47287;SDS011;33020;53.008;13.558;2022-11-20T07:42:55;29.00;;;16.77;;
47287;SDS011;33020;53.008;13.558;2022-11-20T07:45:23;25.30;;;13.97;;
47287;SDS011;33020;53.008;13.558;2022-11-20T07:47:53;24.80;;;15.00;;
47287;SDS011;33020;53.008;13.558;2022-11-20T07:50:20;27.80;;;15.00;;
47287;SDS011;33020;53.008;13.558;2022-11-20T07:52:46;28.30;;;16.13;;
47287;SDS011;33020;53.008;13.558;2022-11-20T07:55:14;29.23;;;15.00;;
47287;SDS011;33020;53.008;13.558;2022-11-20T07:57:41;31.97;;;17.40;;
47287;SDS011;33020;53.008;13.558;2022-11-20T08:00:08;29.67;;;16.73;;
47287;SDS011;33020;53.008;13.558;2022-11-20T08:02:37;24.90;;;12.97;;
47287;SDS011;33020;53.008;13.558;2022-11-20T08:05:05;27.40;;;14.33;;
47287;SDS011;33020;53.008;13.558;2022-11-20T08:07:40;25.40;;;16.30;;
47287;SDS011;33020;53.008;13.558;2022-11-20T08:10:09;26.37;;;14.20;;
47287;SDS011;33020;53.008;13.558;2022-11-20T08:12:44;29.63;;;16.37;;
47287;SDS011;33020;53.008;13.558;2022-11-20T08:15:34;26.70;;;14.53;;
47287;SDS011;33020;53.008;13.558;2022-11-20T08:18:04;28.97;;;14.67;;
47287;SDS011;33020;53.008;13.558;2022-11-20T08:20:53;25.80;;;13.47;;
47287;SDS011;33020;53.008;13.558;2022-11-20T08:23:19;25.17;;;14.43;;
47287;SDS011;33020;53.008;13.558;2022-11-20T08:25:49;28.27;;;15.10;;
47287;SDS011;33020;53.008;13.558;2022-11-20T08:28:16;30.60;;;15.27;;
47287;SDS011;33020;53.008;13.558;2022-11-20T08:30:47;27.53;;;14.27;;
47287;SDS011;33020;53.008;13.558;2022-11-20T08:33:15;27.93;;;14.63;;
47287;SDS011;33020;53.008;13.558;2022-11-20T08:35:43;25.37;;;14.53;;
47287;SDS011;33020;53.008;13.558;2022-11-20T08:38:10;26.07;;;14.47;;
47287;SDS011;33020;53.008;13.558;2022-11-20T08:40:37;25.77;;;14.67;;
47287;SDS011;33020;53.008;13.558;2022-11-20T08:43:07;26.23;;;14.03;;
47287;SDS011;33020;53.008;13.558;2022-11-20T08:45:34;24.93;;;13.97;;
47287;SDS011;33020;53.008;13.558;2022-11-20T08:48:01;24.80;;;15.87;;
47287;SDS011;33020;53.008;13.558;2022-11-20T08:50:29;25.63;;;13.93;;
47287;SDS011;33020;53.008;13.558;2022-11-20T08:53:05;27.03;;;15.03;;
47287;SDS011;33020;53.008;13.558;2022-11-20T08:55:32;28.35;;;14.75;;
47287;SDS011;33020;53.008;13.558;2022-11-20T08:58:05;25.87;;;14.00;;
47287;SDS011;33020;53.008;13.558;2022-11-20T09:00:32;25.83;;;15.53;;
47287;SDS011;33020;53.008;13.558;2022-11-20T09:03:00;29.20;;;14.83;;
47287;SDS011;33020;53.008;13.558;2022-11-20T09:05:27;28.00;;;15.47;;
47287;SDS011;33020;53.008;13.558;2022-11-20T09:07:58;25.63;;;14.47;;
47287;SDS011;33020;53.008;13.558;2022-11-20T09:10:25;27.77;;;14.50;;
47287;SDS011;33020;53.008;13.558;2022-11-20T09:12:53;29.37;;;16.77;;
47287;SDS011;33020;53.008;13.558;2022-11-20T09:15:22;27.83;;;14.83;;
47287;SDS011;33020;53.008;13.558;2022-11-20T09:17:56;26.90;;;15.30;;
47287;SDS011;33020;53.008;13.558;2022-11-20T09:20:25;26.23;;;14.07;;
47287;SDS011;33020;53.008;13.558;2022-11-20T09:22:52;21.67;;;12.37;;
47287;SDS011;33020;53.008;13.558;2022-11-20T09:25:19;25.97;;;13.43;;
47287;SDS011;33020;53.008;13.558;2022-11-20T09:27:45;25.60;;;13.57;;
47287;SDS011;33020;53.008;13.558;2022-11-20T09:30:13;24.10;;;13.67;;
47287;SDS011;33020;53.008;13.558;2022-11-20T09:32:40;23.63;;;13.47;;
47287;SDS011;33020;53.008;13.558;2022-11-20T09:35:08;25.10;;;13.30;;
47287;SDS011;33020;53.008;13.558;2022-11-20T09:37:37;23.40;;;12.77;;
47287;SDS011;33020;53.008;13.558;2022-11-20T09:40:04;24.33;;;12.73;;
47287;SDS011;33020;53.008;13.558;2022-11-20T09:50:49;26.17;;;14.63;;
47287;SDS011;33020;53.008;13.558;2022-11-20T09:53:35;20.50;;;12.60;;
47287;SDS011;33020;53.008;13.558;2022-11-20T09:56:09;25.63;;;15.00;;
47287;SDS011;33020;53.008;13.558;2022-11-20T09:58:41;42.10;;;25.07;;
47287;SDS011;33020;53.008;13.558;2022-11-20T10:01:10;28.87;;;16.83;;
47287;SDS011;33020;53.008;13.558;2022-11-20T10:03:41;28.17;;;15.30;;
47287;SDS011;33020;53.008;13.558;2022-11-20T10:06:18;20.87;;;14.00;;
47287;SDS011;33020;53.008;13.558;2022-11-20T10:08:50;25.53;;;13.87;;
47287;SDS011;33020;53.008;13.558;2022-11-20T10:11:31;26.17;;;14.60;;
47287;SDS011;33020;53.008;13.558;2022-11-20T10:14:09;22.80;;;12.87;;
47287;SDS011;33020;53.008;13.558;2022-11-20T10:27:49;26.83;;;14.87;;
47287;SDS011;33020;53.008;13.558;2022-11-20T10:30:19;21.90;;;12.23;;
47287;SDS011;33020;53.008;13.558;2022-11-20T10:32:50;22.13;;;13.03;;
47287;SDS011;33020;53.008;13.558;2022-11-20T10:35:20;22.10;;;11.13;;
47287;SDS011;33020;53.008;13.558;2022-11-20T10:37:54;21.93;;;12.23;;
47287;SDS011;33020;53.008;13.558;2022-11-20T10:40:40;20.83;;;12.27;;
47287;SDS011;33020;53.008;13.558;2022-11-20T10:43:27;20.03;;;12.77;;
47287;SDS011;33020;53.008;13.558;2022-11-20T10:45:57;18.50;;;10.80;;
47287;SDS011;33020;53.008;13.558;2022-11-20T10:48:25;20.03;;;10.67;;
47287;SDS011;33020;53.008;13.558;2022-11-20T10:50:59;22.33;;;11.60;;
47287;SDS011;33020;53.008;13.558;2022-11-20T10:56:16;19.80;;;12.93;;
47287;SDS011;33020;53.008;13.558;2022-11-20T10:58:52;20.57;;;13.23;;
47287;SDS011;33020;53.008;13.558;2022-11-20T11:01:27;18.83;;;12.13;;
47287;SDS011;33020;53.008;13.558;2022-11-20T11:03:55;21.47;;;11.57;;
47287;SDS011;33020;53.008;13.558;2022-11-20T11:08:55;21.73;;;11.13;;
47287;SDS011;33020;53.008;13.558;2022-11-20T11:11:24;19.73;;;11.00;;
47287;SDS011;33020;53.008;13.558;2022-11-20T11:14:03;22.57;;;12.23;;
47287;SDS011;33020;53.008;13.558;2022-11-20T11:16:31;37.20;;;18.43;;
47287;SDS011;33020;53.008;13.558;2022-11-20T11:19:05;38.77;;;19.77;;
47287;SDS011;33020;53.008;13.558;2022-11-20T11:21:33;26.03;;;14.60;;
47287;SDS011;33020;53.008;13.558;2022-11-20T11:24:02;18.77;;;12.90;;
47287;SDS011;33020;53.008;13.558;2022-11-20T11:26:51;20.83;;;12.10;;
47287;SDS011;33020;53.008;13.558;2022-11-20T11:29:19;18.67;;;10.57;;
47287;SDS011;33020;53.008;13.558;2022-11-20T11:31:46;19.53;;;10.67;;
47287;SDS011;33020;53.008;13.558;2022-11-20T11:34:14;22.93;;;12.57;;
47287;SDS011;33020;53.008;13.558;2022-11-20T11:36:42;20.10;;;11.03;;
47287;SDS011;33020;53.008;13.558;2022-11-20T11:39:18;22.10;;;11.90;;
47287;SDS011;33020;53.008;13.558;2022-11-20T11:41:47;20.23;;;11.77;;
47287;SDS011;33020;53.008;13.558;2022-11-20T11:44:21;25.83;;;13.57;;
47287;SDS011;33020;53.008;13.558;2022-11-20T11:47:11;20.17;;;12.47;;
47287;SDS011;33020;53.008;13.558;2022-11-20T11:49:48;37.40;;;19.23;;
47287;SDS011;33020;53.008;13.558;2022-11-20T11:52:18;21.47;;;12.03;;
47287;SDS011;33020;53.008;13.558;2022-11-20T11:54:49;22.87;;;11.93;;
47287;SDS011;33020;53.008;13.558;2022-11-20T12:00:16;20.80;;;12.03;;
47287;SDS011;33020;53.008;13.558;2022-11-20T12:05:15;24.40;;;15.07;;
47287;SDS011;33020;53.008;13.558;2022-11-20T12:07:51;19.40;;;11.55;;
47287;SDS011;33020;53.008;13.558;2022-11-20T12:10:21;20.60;;;11.90;;
47287;SDS011;33020;53.008;13.558;2022-11-20T12:12:54;19.27;;;10.80;;
47287;SDS011;33020;53.008;13.558;2022-11-20T12:15:26;16.80;;;10.77;;
47287;SDS011;33020;53.008;13.558;2022-11-20T12:17:56;15.33;;;9.87;;
47287;SDS011;33020;53.008;13.558;2022-11-20T12:20:24;18.23;;;10.80;;
47287;SDS011;33020;53.008;13.558;2022-11-20T12:25:34;18.33;;;11.10;;
47287;SDS011;33020;53.008;13.558;2022-11-20T12:28:12;18.70;;;10.70;;
47287;SDS011;33020;53.008;13.558;2022-11-20T12:30:58;18.40;;;9.90;;
47287;SDS011;33020;53.008;13.558;2022-11-20T12:36:24;18.50;;;10.60;;
47287;SDS011;33020;53.008;13.558;2022-11-20T12:38:56;18.03;;;10.10;;
47287;SDS011;33020;53.008;13.558;2022-11-20T12:41:43;18.63;;;10.20;;
47287;SDS011;33020;53.008;13.558;2022-11-20T12:47:51;18.90;;;10.20;;
47287;SDS011;33020;53.008;13.558;2022-11-20T13:02:25;22.00;;;12.03;;
47287;SDS011;33020;53.008;13.558;2022-11-20T13:05:26;19.93;;;11.77;;
47287;SDS011;33020;53.008;13.558;2022-11-20T13:07:55;41.97;;;25.10;;
47287;SDS011;33020;53.008;13.558;2022-11-20T13:10:37;21.53;;;12.27;;
47287;SDS011;33020;53.008;13.558;2022-11-20T13:16:05;19.53;;;10.80;;
47287;SDS011;33020;53.008;13.558;2022-11-20T13:18:39;22.03;;;11.97;;
47287;SDS011;33020;53.008;13.558;2022-11-20T13:21:16;18.63;;;11.20;;
47287;SDS011;33020;53.008;13.558;2022-11-20T13:24:19;20.23;;;10.23;;
47287;SDS011;33020;53.008;13.558;2022-11-20T13:27:00;18.80;;;11.03;;
47287;SDS011;33020;53.008;13.558;2022-11-20T13:29:40;18.03;;;10.70;;
47287;SDS011;33020;53.008;13.558;2022-11-20T13:34:39;13.90;;;9.30;;
47287;SDS011;33020;53.008;13.558;2022-11-20T13:37:28;14.23;;;9.13;;
47287;SDS011;33020;53.008;13.558;2022-11-20T13:40:05;17.00;;;9.17;;
47287;SDS011;33020;53.008;13.558;2022-11-20T13:45:09;15.10;;;8.93;;
47287;SDS011;33020;53.008;13.558;2022-11-20T13:47:37;14.90;;;8.43;;
47287;SDS011;33020;53.008;13.558;2022-11-20T13:50:14;13.83;;;8.60;;
47287;SDS011;33020;53.008;13.558;2022-11-20T13:55:43;15.37;;;8.73;;
47287;SDS011;33020;53.008;13.558;2022-11-20T13:58:36;15.47;;;8.40;;
47287;SDS011;33020;53.008;13.558;2022-11-20T14:01:11;15.60;;;9.33;;
47287;SDS011;33020;53.008;13.558;2022-11-20T14:03:41;15.73;;;8.37;;
47287;SDS011;33020;53.008;13.558;2022-11-20T14:06:29;23.50;;;13.30;;
47287;SDS011;33020;53.008;13.558;2022-11-20T14:08:58;25.97;;;12.90;;
47287;SDS011;33020;53.008;13.558;2022-11-20T14:11:28;23.40;;;12.93;;
47287;SDS011;33020;53.008;13.558;2022-11-20T14:16:42;21.33;;;12.17;;
47287;SDS011;33020;53.008;13.558;2022-11-20T14:21:48;16.60;;;9.93;;
47287;SDS011;33020;53.008;13.558;2022-11-20T14:24:19;17.57;;;9.60;;
47287;SDS011;33020;53.008;13.558;2022-11-20T14:26:48;16.03;;;9.37;;
47287;SDS011;33020;53.008;13.558;2022-11-20T14:29:16;17.97;;;10.13;;
47287;SDS011;33020;53.008;13.558;2022-11-20T14:31:45;17.27;;;9.87;;
47287;SDS011;33020;53.008;13.558;2022-11-20T14:34:24;18.60;;;10.63;;
47287;SDS011;33020;53.008;13.558;2022-11-20T14:36:52;18.40;;;11.70;;
47287;SDS011;33020;53.008;13.558;2022-11-20T14:39:25;18.00;;;11.97;;
47287;SDS011;33020;53.008;13.558;2022-11-20T14:42:10;17.80;;;10.60;;
47287;SDS011;33020;53.008;13.558;2022-11-20T14:44:41;16.73;;;9.57;;
47287;SDS011;33020;53.008;13.558;2022-11-20T14:47:08;18.13;;;10.03;;
47287;SDS011;33020;53.008;13.558;2022-11-20T14:49:38;19.13;;;10.43;;
47287;SDS011;33020;53.008;13.558;2022-11-20T14:52:18;18.90;;;10.77;;
47287;SDS011;33020;53.008;13.558;2022-11-20T14:54:50;19.57;;;10.93;;
47287;SDS011;33020;53.008;13.558;2022-11-20T14:59:49;20.03;;;10.57;;
47287;SDS011;33020;53.008;13.558;2022-11-20T15:02:15;20.13;;;10.90;;
47287;SDS011;33020;53.008;13.558;2022-11-20T15:04:49;22.07;;;12.80;;
47287;SDS011;33020;53.008;13.558;2022-11-20T15:12:32;20.13;;;11.10;;
47287;SDS011;33020;53.008;13.558;2022-11-20T15:15:00;20.10;;;11.13;;
47287;SDS011;33020;53.008;13.558;2022-11-20T15:17:28;18.67;;;9.77;;
47287;SDS011;33020;53.008;13.558;2022-11-20T15:19:55;23.80;;;12.73;;
47287;SDS011;33020;53.008;13.558;2022-11-20T15:22:22;21.07;;;11.57;;
47287;SDS011;33020;53.008;13.558;2022-11-20T15:24:48;19.50;;;10.17;;
47287;SDS011;33020;53.008;13.558;2022-11-20T15:27:15;18.97;;;11.27;;
47287;SDS011;33020;53.008;13.558;2022-11-20T15:29:42;18.43;;;10.10;;
47287;SDS011;33020;53.008;13.558;2022-11-20T15:32:08;19.27;;;10.23;;
47287;SDS011;33020;53.008;13.558;2022-11-20T15:34:39;18.70;;;10.23;;
47287;SDS011;33020;53.008;13.558;2022-11-20T15:37:05;19.47;;;10.77;;
47287;SDS011;33020;53.008;13.558;2022-11-20T15:39:32;15.37;;;8.93;;
47287;SDS011;33020;53.008;13.558;2022-11-20T15:41:58;19.87;;;10.43;;
47287;SDS011;33020;53.008;13.558;2022-11-20T15:44:25;14.07;;;9.03;;
47287;SDS011;33020;53.008;13.558;2022-11-20T15:46:52;20.10;;;11.20;;
47287;SDS011;33020;53.008;13.558;2022-11-20T15:49:18;19.60;;;12.40;;